Avon, Ohio
Current Conditions -  °F | °C
As of 2:51 PM on Monday 26 Jan 2015 (Local Time) from KCLE Reporting Station
Overcast Overcast  
Wind Chill:   Ceiling: 1000
Heat Index: 20°   Visibility: 9mi
Dew Point: 16°   Wind: 16mph
Humidity: 85%   Direction: 20°NNE
Pressure: 29.87"   Gusts: NA
Location:  41.47°N, 82.02°W
Report Text: KCLE 261951Z 02014KT 9SM OVC010 M07/M09 A2987 RMK AO2 SLP126 T10671089 $
Loading
Personal Weather Stations






























Interactive Weather Map New forecast layout! Learn more

10-Day Weather Forecast

Advertisements
Track Severe Weather on mobile